Aeroporto :
LOGIN :

Iscrizione | Disclaimer

   EN    FR    IT 

 










Sommario :    VFR   VFR Marginale   IFR   IFR Intensivo   IFR Molto Intensivo
Visibilità : 
Base nubi : 
>= 8 km
>= 3000ft
5 / 8 km
1000 / 3000 ft
1500m / 5 km
500 / 1000 ft
800 / 1500m
200 / 500 ft
< 800m
< 200 ft
Simboli :   Temporali  Nebbia  Neve Forte  Precipitazioni Forti  Vento > 20 kt
SIGMETs :   Varie  Temporali  Ghiacco  Turbolenza  Onda orograficha  Ceneri Vulcaniche






- Altitudine del aeroporto : 41 ft


LIRE - Pratica di Mare Air Base Pomezia

ULTIMO METAR :
  • 021255Z 22005KT 9999 FEW050 12/03 Q1014 RMK SCT VIS MIN 9999 WIND THR13 24005KT WIND THR31 22005KT BLU

METARs OBSOLETI :
  • 021155Z 22004KT 9999 FEW020 BKN040 11/04 Q1014 RMK BKN VIS MIN 9999 WIND THR13 21005KT WIND THR31 24005KT BLU
  • 021055Z 21004KT 9999 FEW020 BKN040 11/05 Q1014 RMK BKN VIS MIN 9999 WIND THR13 21005KT WIND THR31 16006KT BLU

TAF TAF LIRE
Valido dal 02 a 12 ore il 02 a 21 ore UTC


021100Z 0212/0221 18010KT 9999 FEW020 BKN040
BECMG 0216/0218 VRB05KT



MetMap, La meteo Aeronautica in un colpo d'occhio ! - Copyright ORBIFLY Dicembre 2007 - Disclaimer

ORBIFLY MET'MAP TEAM :

Programmazione e sviluppo : Alexandra Zaïnal
Concezione : Baudouin d'Aumeries
Aiuto per la programmazione : Marc-Olivier Méhu
Supporto tecnico e logistico : Manuel Goepfert
Aiuto per la traduzione : Arnaldo La Scala

Contatto : metmap@orbifly.com




FONTI E CREDITI :

   NOAA